Time;durP1;ratioP1;P1;durP2;ratioP2;P2;SDS_P1;SDS_P2;PMS_P1;PMS_P2;Temp;Humidity;BMP_temperature;BMP_pressure;BME280_temperature;BME280_humidity;BME280_pressure;Samples;Min_cycle;Max_cycle;Signal;HPM_P1;HPM_P2
2023/01/11 00:00:58;;;;;;;8.13;3.28;;;;;;;;;;2098887;28;20024;-58
2023/01/11 00:01:59;;;;;;;6.20;2.90;;;;;;;;;;2097722;28;20490;-59
2023/01/11 00:03:00;;;;;;;7.22;2.90;;;;;;;;;;2101441;28;20125;-57
2023/01/11 00:04:00;;;;;;;7.78;3.22;;;;;;;;;;2098013;28;20023;-59
2023/01/11 00:05:00;;;;;;;6.43;2.97;;;;;;;;;;2093798;28;20020;-59
2023/01/11 00:06:00;;;;;;;6.30;3.23;;;;;;;;;;2094346;28;20132;-59
2023/01/11 00:07:00;;;;;;;5.38;3.28;;;;;;;;;;2095715;28;20265;-58
2023/01/11 00:08:01;;;;;;;5.63;3.10;;;;;;;;;;2090595;28;20104;-57
2023/01/11 00:09:01;;;;;;;6.70;3.22;;;;;;;;;;2090588;28;20087;-58
2023/01/11 00:10:03;;;;;;;7.90;3.50;;;;;;;;;;2092317;28;20535;-59
2023/01/11 00:11:03;;;;;;;4.80;2.72;;;;;;;;;;2099447;28;20016;-55
2023/01/11 00:12:05;;;;;;;5.63;3.28;;;;;;;;;;2105943;28;20048;-56
2023/01/11 00:13:05;;;;;;;5.85;3.70;;;;;;;;;;2098881;28;20052;-58
2023/01/11 00:14:05;;;;;;;4.97;3.17;;;;;;;;;;2098970;28;20056;-58
2023/01/11 00:15:06;;;;;;;7.43;3.65;;;;;;;;;;2100908;28;20078;-57
2023/01/11 00:16:06;;;;;;;4.97;3.30;;;;;;;;;;2107165;28;20459;-57
2023/01/11 00:17:06;;;;;;;5.88;3.30;;;;;;;;;;2098703;28;20051;-59
2023/01/11 00:18:07;;;;;;;5.72;3.80;;;;;;;;;;2098845;28;20016;-56
2023/01/11 00:19:07;;;;;;;6.68;3.75;;;;;;;;;;2098745;28;20024;-59
2023/01/11 00:20:08;;;;;;;7.57;4.57;;;;;;;;;;2101945;28;20048;-59
2023/01/11 00:21:09;;;;;;;5.60;3.58;;;;;;;;;;2106792;28;20024;-59
2023/01/11 00:22:09;;;;;;;6.60;4.20;;;;;;;;;;2098833;28;20466;-57
2023/01/11 00:23:09;;;;;;;7.85;4.03;;;;;;;;;;2101091;28;20028;-54
2023/01/11 00:24:10;;;;;;;6.18;4.47;;;;;;;;;;2107271;28;20028;-58
2023/01/11 00:25:10;;;;;;;9.20;4.45;;;;;;;;;;2104186;28;20100;-56
2023/01/11 00:26:11;;;;;;;7.22;4.57;;;;;;;;;;2106307;28;20035;-56
2023/01/11 00:27:11;;;;;;;6.80;4.05;;;;;;;;;;2106389;28;20379;-59
2023/01/11 00:28:11;;;;;;;7.20;4.33;;;;;;;;;;2106670;28;20028;-59
2023/01/11 00:29:11;;;;;;;7.68;5.03;;;;;;;;;;2098594;28;20241;-59
2023/01/11 00:30:12;;;;;;;7.30;4.97;;;;;;;;;;2107095;28;20058;-59
2023/01/11 00:31:12;;;;;;;5.30;4.57;;;;;;;;;;2107044;28;20031;-56
2023/01/11 00:32:12;;;;;;;11.43;5.63;;;;;;;;;;2107263;28;20050;-57
2023/01/11 00:33:12;;;;;;;6.82;4.40;;;;;;;;;;2106999;28;20284;-58
2023/01/11 00:34:12;;;;;;;9.38;5.28;;;;;;;;;;2106172;28;20016;-59
2023/01/11 00:35:12;;;;;;;9.98;5.32;;;;;;;;;;2104252;28;20024;-55
2023/01/11 00:36:12;;;;;;;5.75;4.90;;;;;;;;;;2098811;28;20029;-58
2023/01/11 00:37:13;;;;;;;6.00;4.85;;;;;;;;;;2099544;28;20144;-56
2023/01/11 00:38:42;;;;;;;8.88;5.75;;;;;;;;;;2106250;28;20491;-58
2023/01/11 00:39:33;;;;;;;10.00;5.88;;;;;;;;;;2090289;28;20384;-58
2023/01/11 00:40:33;;;;;;;9.02;5.07;;;;;;;;;;2090515;28;20023;-59
2023/01/11 00:48:09;;;;;;;7.28;5.38;;;;;;;;;;2105762;28;20020;-60
2023/01/11 00:49:09;;;;;;;8.48;5.22;;;;;;;;;;2106723;28;20463;-57
2023/01/11 00:50:09;;;;;;;6.90;4.67;;;;;;;;;;2105498;28;20075;-59
2023/01/11 00:51:10;;;;;;;7.53;4.97;;;;;;;;;;2106625;28;20291;-57
2023/01/11 00:52:10;;;;;;;7.65;5.10;;;;;;;;;;2105242;28;20046;-55
2023/01/11 00:53:10;;;;;;;9.27;5.63;;;;;;;;;;2103950;28;20032;-57
2023/01/11 00:54:10;;;;;;;6.80;4.80;;;;;;;;;;2105551;28;20048;-59
2023/01/11 00:55:10;;;;;;;9.18;6.07;;;;;;;;;;2101801;28;20028;-59
2023/01/11 00:56:11;;;;;;;8.23;5.37;;;;;;;;;;2106090;28;20085;-59
2023/01/11 00:57:11;;;;;;;6.67;6.00;;;;;;;;;;2107115;28;20245;-59
2023/01/11 00:58:11;;;;;;;9.07;6.05;;;;;;;;;;2105379;28;20244;-58
2023/01/11 00:59:11;;;;;;;9.20;6.57;;;;;;;;;;2102160;28;20364;-59
2023/01/11 01:00:11;;;;;;;9.50;6.43;;;;;;;;;;2107040;28;20031;-59
2023/01/11 01:01:11;;;;;;;6.93;6.25;;;;;;;;;;2107106;28;20241;-59
2023/01/11 01:02:12;;;;;;;9.38;6.13;;;;;;;;;;2104380;28;20073;-59
2023/01/11 01:03:12;;;;;;;10.05;6.80;;;;;;;;;;2107064;28;20073;-60
2023/01/11 01:04:12;;;;;;;8.80;6.75;;;;;;;;;;2106180;28;20099;-60
2023/01/11 01:05:12;;;;;;;9.60;6.35;;;;;;;;;;2107047;28;20028;-59
2023/01/11 01:06:13;;;;;;;10.32;7.53;;;;;;;;;;2104517;28;20020;-59
2023/01/11 01:07:13;;;;;;;10.63;7.68;;;;;;;;;;2107178;28;20024;-59
2023/01/11 01:08:13;;;;;;;10.60;6.70;;;;;;;;;;2106975;28;20020;-60
2023/01/11 01:09:13;;;;;;;10.27;6.97;;;;;;;;;;2102565;28;20289;-61
2023/01/11 01:10:15;;;;;;;10.30;7.28;;;;;;;;;;2106102;28;20036;-59
2023/01/11 01:11:15;;;;;;;8.88;7.18;;;;;;;;;;2106534;28;20036;-59
2023/01/11 01:14:24;;;;;;;8.88;7.30;;;;;;;;;;2107002;28;20469;-59
2023/01/11 01:14:54;;;;;;;7.55;6.22;;;;;;;;;;2106931;28;20474;-60
2023/01/11 01:15:57;;;;;;;9.37;7.13;;;;;;;;;;2106921;28;20028;-60
2023/01/11 01:16:59;;;;;;;12.15;7.25;;;;;;;;;;2104932;28;20260;-57
2023/01/11 01:17:59;;;;;;;9.20;7.18;;;;;;;;;;2106957;28;20016;-58
2023/01/11 01:18:59;;;;;;;9.93;7.82;;;;;;;;;;2104623;28;20073;-59
2023/01/11 01:19:59;;;;;;;12.18;7.20;;;;;;;;;;2105536;28;20051;-60
2023/01/11 01:21:00;;;;;;;13.00;8.13;;;;;;;;;;2104059;28;20032;-60
2023/01/11 01:22:00;;;;;;;9.88;7.70;;;;;;;;;;2105272;28;20267;-57
2023/01/11 01:23:00;;;;;;;10.10;6.50;;;;;;;;;;2106999;28;20028;-59
2023/01/11 01:24:00;;;;;;;10.15;7.45;;;;;;;;;;2100935;28;20054;-58
2023/01/11 01:25:01;;;;;;;13.45;8.23;;;;;;;;;;2106933;28;20035;-58
2023/01/11 01:26:02;;;;;;;10.20;8.00;;;;;;;;;;2107010;28;20016;-60
2023/01/11 01:27:02;;;;;;;11.05;7.63;;;;;;;;;;2106892;28;20386;-60
2023/01/11 01:28:02;;;;;;;11.50;7.73;;;;;;;;;;2102307;28;20027;-61
2023/01/11 01:29:03;;;;;;;12.40;8.13;;;;;;;;;;2105376;28;20719;-59
2023/01/11 01:30:04;;;;;;;11.90;8.43;;;;;;;;;;2106786;28;20016;-59
2023/01/11 01:31:04;;;;;;;14.40;7.78;;;;;;;;;;2104974;28;20028;-60
2023/01/11 01:32:04;;;;;;;9.80;8.80;;;;;;;;;;2106675;28;20028;-59
2023/01/11 01:33:04;;;;;;;15.68;8.40;;;;;;;;;;2107027;28;20355;-59
2023/01/11 01:34:05;;;;;;;10.75;7.75;;;;;;;;;;2105274;28;20020;-59
2023/01/11 01:35:05;;;;;;;13.43;7.53;;;;;;;;;;2104087;28;20344;-55
2023/01/11 01:36:06;;;;;;;13.38;8.13;;;;;;;;;;2098526;28;20028;-59
2023/01/11 01:37:06;;;;;;;8.90;7.68;;;;;;;;;;2098605;28;20024;-58
2023/01/11 01:38:07;;;;;;;10.85;8.20;;;;;;;;;;2098484;28;20017;-59
2023/01/11 01:39:07;;;;;;;10.30;7.80;;;;;;;;;;2096933;28;20071;-60
2023/01/11 01:40:08;;;;;;;8.63;6.38;;;;;;;;;;2098509;28;20064;-61
2023/01/11 01:41:09;;;;;;;11.95;8.38;;;;;;;;;;2098773;28;20027;-60
2023/01/11 01:42:14;;;;;;;14.52;8.77;;;;;;;;;;2096979;28;20029;-61
2023/01/11 01:43:15;;;;;;;9.63;8.45;;;;;;;;;;2097189;28;20033;-59
2023/01/11 01:44:34;;;;;;;11.60;8.70;;;;;;;;;;2105975;28;20016;-60
2023/01/11 01:45:34;;;;;;;13.57;8.68;;;;;;;;;;2107003;28;20019;-59
2023/01/11 01:46:35;;;;;;;13.00;9.30;;;;;;;;;;2104698;28;20370;-60
2023/01/11 01:47:35;;;;;;;13.35;9.18;;;;;;;;;;2106928;28;20019;-59
2023/01/11 01:48:37;;;;;;;11.00;9.10;;;;;;;;;;2105709;28;20103;-59
2023/01/11 01:49:37;;;;;;;11.35;9.60;;;;;;;;;;2101935;28;20061;-59
2023/01/11 01:50:42;;;;;;;11.90;9.57;;;;;;;;;;2104507;28;20020;-60
2023/01/11 01:51:48;;;;;;;9.02;7.43;;;;;;;;;;2107017;28;20173;-59
2023/01/11 01:52:50;;;;;;;10.48;9.38;;;;;;;;;;2106711;28;20115;-58
2023/01/11 01:53:53;;;;;;;12.00;9.68;;;;;;;;;;2097895;28;20353;-60
2023/01/11 01:54:54;;;;;;;11.93;9.70;;;;;;;;;;2098345;28;20024;-58
2023/01/11 01:55:56;;;;;;;16.00;9.77;;;;;;;;;;2098719;28;20020;-58
2023/01/11 01:57:02;;;;;;;14.10;9.75;;;;;;;;;;2098981;28;20025;-58
2023/01/11 01:58:05;;;;;;;11.48;9.40;;;;;;;;;;2105482;28;20078;-58
2023/01/11 01:59:11;;;;;;;13.38;10.02;;;;;;;;;;2107659;28;20103;-59
2023/01/11 02:00:12;;;;;;;18.58;10.07;;;;;;;;;;2108622;28;20030;-57
2023/01/11 02:02:32;;;;;;;14.60;9.75;;;;;;;;;;2108349;28;20024;-57
2023/01/11 02:03:32;;;;;;;13.30;10.25;;;;;;;;;;2107014;28;20032;-59
2023/01/11 02:04:40;;;;;;;16.98;11.20;;;;;;;;;;2103596;28;20039;-60
2023/01/11 02:05:40;;;;;;;17.95;11.32;;;;;;;;;;2102205;28;20065;-58
2023/01/11 02:06:41;;;;;;;15.32;10.93;;;;;;;;;;2103672;28;20028;-59
2023/01/11 02:07:43;;;;;;;14.93;11.00;;;;;;;;;;2108446;28;20031;-59
2023/01/11 02:08:47;;;;;;;13.68;11.10;;;;;;;;;;2105333;28;20420;-59
2023/01/11 02:09:59;;;;;;;13.43;9.93;;;;;;;;;;2108482;28;20020;-60
2023/01/11 02:10:59;;;;;;;16.75;9.23;;;;;;;;;;2100975;28;20056;-60
2023/01/11 02:12:00;;;;;;;16.23;10.93;;;;;;;;;;2099993;28;20020;-57
2023/01/11 02:13:03;;;;;;;14.20;10.45;;;;;;;;;;2101687;28;20033;-59
2023/01/11 02:14:05;;;;;;;14.90;10.82;;;;;;;;;;2108284;28;20024;-60
2023/01/11 02:15:08;;;;;;;13.80;10.73;;;;;;;;;;2108168;28;20024;-59
2023/01/11 02:16:08;;;;;;;13.23;10.82;;;;;;;;;;2100418;28;20082;-58
2023/01/11 02:17:08;;;;;;;19.17;11.82;;;;;;;;;;2103658;28;20065;-59
2023/01/11 02:18:10;;;;;;;12.82;10.85;;;;;;;;;;2105763;28;20120;-57
2023/01/11 02:19:15;;;;;;;14.57;10.30;;;;;;;;;;2108155;28;20023;-59
2023/01/11 02:20:22;;;;;;;15.65;11.35;;;;;;;;;;2106361;28;20019;-60
2023/01/11 02:21:25;;;;;;;17.00;12.00;;;;;;;;;;2103694;28;20043;-60
2023/01/11 02:22:51;;;;;;;17.05;11.32;;;;;;;;;;2107672;28;20023;-60
2023/01/11 02:24:10;;;;;;;13.35;10.70;;;;;;;;;;2091346;28;20009;-60
2023/01/11 02:25:13;;;;;;;16.38;10.27;;;;;;;;;;2099806;28;20031;-59
2023/01/11 02:26:20;;;;;;;11.07;9.60;;;;;;;;;;2099665;28;20051;-59
2023/01/11 02:27:27;;;;;;;13.13;11.27;;;;;;;;;;2099053;28;20027;-60
2023/01/11 02:28:50;;;;;;;12.77;11.25;;;;;;;;;;2099614;28;20013;-58
2023/01/11 02:29:57;;;;;;;13.93;11.00;;;;;;;;;;2099728;28;20431;-58
2023/01/11 02:31:03;;;;;;;10.32;8.52;;;;;;;;;;2099337;28;20028;-59
2023/01/11 02:32:22;;;;;;;13.82;10.82;;;;;;;;;;2091441;28;20070;-60
2023/01/11 02:33:34;;;;;;;12.25;9.77;;;;;;;;;;2107400;28;20085;-59
2023/01/11 02:34:44;;;;;;;12.95;10.10;;;;;;;;;;2106436;28;20169;-59
2023/01/11 02:36:03;;;;;;;14.20;11.05;;;;;;;;;;2102821;28;20471;-58
2023/01/11 02:37:18;;;;;;;11.80;10.18;;;;;;;;;;2101359;28;20024;-60
2023/01/11 02:38:26;;;;;;;14.27;12.20;;;;;;;;;;2101832;28;20464;-58
2023/01/11 02:39:34;;;;;;;17.33;11.00;;;;;;;;;;2108430;28;20023;-58
2023/01/11 02:40:57;;;;;;;10.65;9.23;;;;;;;;;;2107929;28;20016;-59
2023/01/11 02:45:00;;;;;;;13.82;10.60;;;;;;;;;;2105977;28;20423;-57
2023/01/11 02:46:20;;;;;;;13.20;11.20;;;;;;;;;;2108190;28;20055;-59
2023/01/11 02:47:25;;;;;;;16.00;12.30;;;;;;;;;;2104889;28;20051;-58
2023/01/11 02:48:30;;;;;;;15.43;12.07;;;;;;;;;;2104982;28;20027;-59
2023/01/11 02:49:35;;;;;;;15.00;11.77;;;;;;;;;;2103957;28;20103;-58
2023/01/11 02:51:08;;;;;;;13.07;11.13;;;;;;;;;;2100046;28;20051;-58
2023/01/11 02:52:13;;;;;;;13.80;10.88;;;;;;;;;;2071601;28;20587;-58
2023/01/11 02:53:22;;;;;;;15.23;11.32;;;;;;;;;;2089667;28;20499;-58
2023/01/11 02:54:22;;;;;;;14.27;11.30;;;;;;;;;;2090465;28;20075;-58
2023/01/11 02:55:25;;;;;;;13.50;10.88;;;;;;;;;;2094965;28;20032;-58
2023/01/11 02:56:26;;;;;;;13.07;11.77;;;;;;;;;;2107927;28;20035;-58
2023/01/11 02:57:28;;;;;;;12.93;10.85;;;;;;;;;;2103044;28;20075;-56
2023/01/11 02:58:31;;;;;;;13.50;12.05;;;;;;;;;;2099694;28;20059;-58
2023/01/11 02:59:32;;;;;;;12.25;10.93;;;;;;;;;;2103477;28;20020;-58
2023/01/11 03:00:36;;;;;;;15.75;11.90;;;;;;;;;;2108169;28;20027;-58
2023/01/11 03:01:42;;;;;;;12.95;10.73;;;;;;;;;;2107782;28;20039;-59
2023/01/11 03:02:43;;;;;;;13.23;11.75;;;;;;;;;;2105097;28;20036;-60
2023/01/11 03:03:43;;;;;;;13.15;11.02;;;;;;;;;;2107831;28;20020;-59
2023/01/11 03:04:43;;;;;;;13.10;11.77;;;;;;;;;;2105371;28;20016;-59
2023/01/11 03:05:46;;;;;;;17.05;12.32;;;;;;;;;;2107698;28;20101;-60
2023/01/11 03:06:47;;;;;;;13.38;11.30;;;;;;;;;;2103996;28;20027;-61
2023/01/11 03:07:57;;;;;;;16.52;11.73;;;;;;;;;;2107669;28;20379;-59
2023/01/11 03:08:57;;;;;;;18.63;12.77;;;;;;;;;;2105720;28;20044;-60
2023/01/11 03:10:16;;;;;;;14.57;13.00;;;;;;;;;;2106435;28;20475;-59
2023/01/11 03:12:50;;;;;;;10.40;8.75;;;;;;;;;;2107492;28;20358;-59
2023/01/11 03:13:07;;;;;;;11.65;9.93;;;;;;;;;;2107050;28;20028;-58
2023/01/11 03:14:19;;;;;;;14.85;11.63;;;;;;;;;;2094252;28;20032;-58
2023/01/11 03:15:38;;;;;;;13.95;11.80;;;;;;;;;;2104049;28;20474;-59
2023/01/11 03:16:53;;;;;;;15.88;11.80;;;;;;;;;;2107891;28;20442;-57
2023/01/11 03:18:09;;;;;;;13.20;11.45;;;;;;;;;;2107581;28;20031;-60
2023/01/11 03:19:15;;;;;;;15.13;11.40;;;;;;;;;;2106256;28;20525;-59
2023/01/11 03:20:34;;;;;;;13.00;11.35;;;;;;;;;;2104676;28;20360;-59
2023/01/11 03:21:58;;;;;;;11.77;10.57;;;;;;;;;;2106728;28;20024;-59
2023/01/11 03:23:08;;;;;;;14.45;10.73;;;;;;;;;;2105831;28;20066;-57
2023/01/11 03:24:26;;;;;;;12.30;10.30;;;;;;;;;;2107772;28;20103;-57
2023/01/11 03:25:35;;;;;;;13.30;11.27;;;;;;;;;;2107532;28;20244;-60
2023/01/11 03:26:35;;;;;;;11.88;10.65;;;;;;;;;;2104753;28;20047;-57
2023/01/11 03:27:39;;;;;;;14.68;10.60;;;;;;;;;;2107690;28;20534;-58
2023/01/11 03:28:48;;;;;;;13.63;10.52;;;;;;;;;;2107419;28;20027;-59
2023/01/11 03:30:01;;;;;;;18.70;11.60;;;;;;;;;;2101782;28;20033;-60
2023/01/11 03:31:04;;;;;;;14.85;11.07;;;;;;;;;;2099578;28;20329;-57
2023/01/11 03:32:11;;;;;;;15.52;11.50;;;;;;;;;;2099158;28;20016;-59
2023/01/11 03:33:12;;;;;;;15.40;11.38;;;;;;;;;;2099195;28;20028;-60
2023/01/11 03:34:12;;;;;;;16.23;10.73;;;;;;;;;;2102821;28;20455;-60
2023/01/11 03:35:18;;;;;;;10.93;9.77;;;;;;;;;;2107011;28;20585;-60
2023/01/11 03:36:39;;;;;;;20.88;11.02;;;;;;;;;;2099485;28;20320;-60
2023/01/11 03:37:46;;;;;;;19.48;10.38;;;;;;;;;;2105445;28;20471;-60
2023/01/11 03:38:49;;;;;;;13.70;10.13;;;;;;;;;;2107626;28;20024;-60
2023/01/11 03:39:54;;;;;;;11.45;10.23;;;;;;;;;;2107857;28;20040;-59
2023/01/11 03:41:05;;;;;;;13.90;8.95;;;;;;;;;;2104605;28;20031;-61
2023/01/11 03:42:07;;;;;;;10.45;8.75;;;;;;;;;;2106121;28;20032;-59
2023/01/11 03:43:12;;;;;;;14.65;9.93;;;;;;;;;;2107463;28;20498;-59
2023/01/11 03:44:13;;;;;;;12.20;9.90;;;;;;;;;;2107942;28;20024;-60
2023/01/11 03:45:14;;;;;;;11.20;9.57;;;;;;;;;;2105356;28;20050;-57
2023/01/11 03:46:17;;;;;;;13.60;10.30;;;;;;;;;;2105999;28;20031;-60
2023/01/11 03:47:19;;;;;;;13.98;10.70;;;;;;;;;;2102879;28;20024;-58
2023/01/11 03:48:25;;;;;;;11.82;9.85;;;;;;;;;;2105497;28;20083;-60
2023/01/11 03:49:30;;;;;;;14.93;10.10;;;;;;;;;;2107439;28;20013;-58
2023/01/11 03:50:32;;;;;;;11.13;9.25;;;;;;;;;;2107540;28;20016;-58
2023/01/11 03:51:34;;;;;;;11.65;8.95;;;;;;;;;;2102856;28;20076;-60
2023/01/11 03:52:37;;;;;;;13.60;9.77;;;;;;;;;;2105384;28;20016;-60
2023/01/11 03:53:38;;;;;;;14.88;10.05;;;;;;;;;;2107386;28;20019;-60
2023/01/11 03:54:39;;;;;;;8.40;7.57;;;;;;;;;;2107537;28;20065;-60
2023/01/11 03:55:41;;;;;;;11.07;8.25;;;;;;;;;;2102896;28;20028;-60
2023/01/11 03:56:59;;;;;;;10.85;9.18;;;;;;;;;;2106469;28;20467;-59
2023/01/11 03:58:00;;;;;;;11.52;8.73;;;;;;;;;;2107316;28;20217;-59
2023/01/11 03:59:00;;;;;;;11.15;8.57;;;;;;;;;;2106869;28;20482;-60
2023/01/11 04:00:01;;;;;;;10.77;8.88;;;;;;;;;;2105882;28;20099;-59
2023/01/11 04:01:01;;;;;;;11.43;8.48;;;;;;;;;;2106416;28;20069;-58
2023/01/11 04:02:02;;;;;;;10.73;8.75;;;;;;;;;;2107248;28;20028;-59
2023/01/11 04:03:03;;;;;;;10.07;9.18;;;;;;;;;;2105443;28;20367;-58
2023/01/11 04:04:03;;;;;;;10.85;8.60;;;;;;;;;;2107206;28;20069;-58
2023/01/11 04:05:04;;;;;;;11.95;9.18;;;;;;;;;;2107492;28;20451;-60
2023/01/11 04:06:05;;;;;;;13.55;8.98;;;;;;;;;;2105609;28;20012;-60
2023/01/11 04:07:05;;;;;;;14.38;8.82;;;;;;;;;;2105363;28;20023;-61
2023/01/11 04:08:05;;;;;;;16.00;8.53;;;;;;;;;;2107423;28;20509;-60
2023/01/11 04:09:05;;;;;;;10.60;6.88;;;;;;;;;;2107403;28;20650;-58
2023/01/11 04:10:06;;;;;;;11.32;8.48;;;;;;;;;;2105256;28;20024;-60
2023/01/11 04:11:06;;;;;;;13.23;8.32;;;;;;;;;;2095579;28;20020;-59
2023/01/11 04:12:06;;;;;;;14.38;8.18;;;;;;;;;;2107143;28;20024;-60
2023/01/11 04:13:06;;;;;;;12.40;8.02;;;;;;;;;;2107379;28;20036;-60
2023/01/11 04:14:07;;;;;;;14.33;8.37;;;;;;;;;;2105258;28;20121;-60
2023/01/11 04:15:08;;;;;;;12.27;7.55;;;;;;;;;;2106657;28;20252;-60
2023/01/11 04:16:08;;;;;;;9.98;7.97;;;;;;;;;;2102187;28;20032;-60
2023/01/11 04:17:08;;;;;;;14.93;8.10;;;;;;;;;;2107303;28;20032;-60
2023/01/11 04:18:08;;;;;;;11.13;7.80;;;;;;;;;;2102466;28;20593;-60
2023/01/11 04:19:08;;;;;;;13.40;8.10;;;;;;;;;;2107282;28;20024;-59
2023/01/11 04:20:09;;;;;;;12.23;8.55;;;;;;;;;;2107186;28;20281;-60
2023/01/11 04:21:09;;;;;;;13.18;8.85;;;;;;;;;;2104390;28;20028;-59
2023/01/11 04:22:10;;;;;;;13.38;9.05;;;;;;;;;;2107069;28;20111;-60
2023/01/11 04:23:10;;;;;;;19.25;9.40;;;;;;;;;;2107402;28;20048;-59
2023/01/11 04:24:12;;;;;;;19.35;8.95;;;;;;;;;;2107179;28;20016;-60
2023/01/11 04:25:12;;;;;;;14.65;9.05;;;;;;;;;;2104107;28;20097;-61
2023/01/11 04:26:12;;;;;;;18.55;8.85;;;;;;;;;;2106576;28;20032;-60
2023/01/11 04:27:13;;;;;;;14.07;8.82;;;;;;;;;;2107232;28;20089;-60
2023/01/11 04:28:13;;;;;;;20.50;9.82;;;;;;;;;;2107227;28;20577;-58
2023/01/11 04:29:13;;;;;;;16.35;9.50;;;;;;;;;;2105131;28;20056;-59
2023/01/11 04:30:13;;;;;;;15.60;8.45;;;;;;;;;;2103886;28;20103;-60
2023/01/11 04:31:13;;;;;;;16.92;8.80;;;;;;;;;;2107137;28;20437;-60
2023/01/11 04:32:14;;;;;;;20.45;9.88;;;;;;;;;;2104596;28;20099;-59
2023/01/11 04:33:14;;;;;;;18.80;9.63;;;;;;;;;;2106930;28;20106;-60
2023/01/11 04:34:14;;;;;;;25.58;9.73;;;;;;;;;;2107311;28;20241;-60
2023/01/11 04:35:14;;;;;;;15.80;9.05;;;;;;;;;;2102070;28;20119;-61
2023/01/11 04:36:14;;;;;;;13.75;9.00;;;;;;;;;;2098238;28;20021;-59
2023/01/11 04:37:14;;;;;;;14.05;8.48;;;;;;;;;;2098670;28;20035;-57
2023/01/11 04:38:15;;;;;;;17.15;9.15;;;;;;;;;;2105840;28;20126;-59
2023/01/11 04:39:15;;;;;;;12.32;8.73;;;;;;;;;;2105059;28;20024;-60
2023/01/11 04:40:15;;;;;;;19.17;8.93;;;;;;;;;;2102779;28;20097;-58
2023/01/11 04:42:34;;;;;;;13.90;8.32;;;;;;;;;;2107031;28;20463;-61
2023/01/11 04:43:34;;;;;;;21.30;8.90;;;;;;;;;;2103617;28;20020;-61
2023/01/11 04:44:34;;;;;;;16.17;8.43;;;;;;;;;;2104785;28;20356;-59
2023/01/11 04:45:34;;;;;;;13.43;8.00;;;;;;;;;;2106158;28;20020;-61
2023/01/11 04:46:34;;;;;;;20.00;8.90;;;;;;;;;;2104738;28;20342;-59
2023/01/11 04:47:35;;;;;;;13.32;7.70;;;;;;;;;;2106458;28;20312;-59
2023/01/11 04:48:36;;;;;;;13.60;7.70;;;;;;;;;;2107159;28;20031;-58
2023/01/11 04:49:36;;;;;;;18.00;8.75;;;;;;;;;;2105459;28;20241;-55
2023/01/11 04:50:36;;;;;;;17.73;8.18;;;;;;;;;;2105106;28;20516;-59
2023/01/11 04:51:36;;;;;;;17.17;7.70;;;;;;;;;;2106989;28;20027;-56
2023/01/11 04:52:39;;;;;;;15.80;7.28;;;;;;;;;;2107160;28;20237;-59
2023/01/11 04:53:39;;;;;;;16.17;7.13;;;;;;;;;;2105518;28;20024;-60
2023/01/11 04:54:39;;;;;;;14.53;6.83;;;;;;;;;;2104818;28;20109;-57
2023/01/11 04:55:39;;;;;;;13.45;6.47;;;;;;;;;;2107019;28;20332;-58
2023/01/11 04:56:40;;;;;;;15.03;6.13;;;;;;;;;;2107257;28;20023;-55
2023/01/11 04:57:40;;;;;;;14.20;6.47;;;;;;;;;;2104160;28;20330;-58
2023/01/11 04:58:40;;;;;;;17.45;6.95;;;;;;;;;;2107253;28;20378;-59
2023/01/11 04:59:41;;;;;;;11.27;5.90;;;;;;;;;;2103788;28;20025;-58
2023/01/11 05:00:41;;;;;;;13.93;6.07;;;;;;;;;;2107082;28;20375;-59
2023/01/11 05:01:41;;;;;;;13.68;6.65;;;;;;;;;;2097437;28;20044;-60
2023/01/11 05:02:41;;;;;;;14.23;6.30;;;;;;;;;;2097631;28;20047;-60
2023/01/11 05:03:42;;;;;;;18.33;6.90;;;;;;;;;;2098528;28;20329;-58
2023/01/11 05:04:42;;;;;;;20.85;6.97;;;;;;;;;;2098298;28;20081;-57
2023/01/11 05:05:42;;;;;;;12.85;6.32;;;;;;;;;;2107167;28;20024;-59
2023/01/11 05:06:42;;;;;;;17.37;6.47;;;;;;;;;;2106874;28;20386;-56
2023/01/11 05:07:43;;;;;;;13.68;5.72;;;;;;;;;;2104047;28;20264;-57
2023/01/11 05:08:46;;;;;;;16.15;5.95;;;;;;;;;;2106756;28;20012;-55
2023/01/11 05:09:46;;;;;;;14.85;6.13;;;;;;;;;;2104613;28;20394;-58
2023/01/11 05:10:53;;;;;;;10.50;4.97;;;;;;;;;;2102496;28;20008;-60
2023/01/11 05:11:53;;;;;;;13.02;5.13;;;;;;;;;;2098178;28;20732;-58
2023/01/11 05:12:53;;;;;;;10.87;4.90;;;;;;;;;;2097864;28;20039;-58
2023/01/11 05:13:53;;;;;;;17.73;4.78;;;;;;;;;;2099794;28;20257;-59
2023/01/11 05:14:53;;;;;;;12.07;4.70;;;;;;;;;;2103265;28;20106;-57
2023/01/11 05:15:53;;;;;;;15.77;4.57;;;;;;;;;;2102955;28;20020;-58
2023/01/11 05:16:54;;;;;;;13.70;5.20;;;;;;;;;;2102927;28;20120;-58
2023/01/11 05:17:54;;;;;;;13.98;5.22;;;;;;;;;;2107056;28;20251;-55
2023/01/11 05:18:55;;;;;;;12.63;4.65;;;;;;;;;;2105792;28;20020;-57
2023/01/11 05:19:55;;;;;;;15.90;5.05;;;;;;;;;;2104630;28;20020;-55
2023/01/11 05:20:55;;;;;;;13.03;4.20;;;;;;;;;;2106861;28;20047;-58
2023/01/11 05:21:55;;;;;;;14.80;4.40;;;;;;;;;;2106975;28;20248;-57
2023/01/11 05:22:55;;;;;;;11.07;4.22;;;;;;;;;;2106920;28;20233;-58
2023/01/11 05:23:57;;;;;;;12.73;3.87;;;;;;;;;;2098422;28;20485;-59
2023/01/11 05:24:57;;;;;;;18.25;4.32;;;;;;;;;;2106859;28;20249;-58
2023/01/11 05:25:57;;;;;;;16.70;4.30;;;;;;;;;;2106961;28;20117;-59
2023/01/11 05:26:57;;;;;;;13.07;3.50;;;;;;;;;;2104123;28;20267;-59
2023/01/11 05:27:58;;;;;;;14.03;3.10;;;;;;;;;;2102933;28;20269;-59
2023/01/11 05:28:59;;;;;;;12.20;3.00;;;;;;;;;;2105915;28;20585;-56
2023/01/11 05:29:59;;;;;;;17.88;2.70;;;;;;;;;;2107203;28;20332;-55
2023/01/11 05:30:59;;;;;;;13.97;3.10;;;;;;;;;;2104082;28;20032;-57
2023/01/11 05:31:59;;;;;;;14.35;2.60;;;;;;;;;;2106971;28;20237;-56
2023/01/11 05:33:01;;;;;;;15.53;2.67;;;;;;;;;;2106802;28;20032;-59
2023/01/11 05:34:01;;;;;;;12.40;2.15;;;;;;;;;;2106497;28;20727;-58
2023/01/11 05:35:01;;;;;;;9.73;1.95;;;;;;;;;;2106441;28;20058;-58
2023/01/11 05:36:06;;;;;;;12.77;2.10;;;;;;;;;;2100896;28;20020;-57
2023/01/11 05:37:06;;;;;;;14.48;2.35;;;;;;;;;;2100202;28;20017;-57
2023/01/11 05:38:06;;;;;;;11.98;2.45;;;;;;;;;;2104348;28;20035;-59
2023/01/11 05:39:06;;;;;;;13.37;1.87;;;;;;;;;;2107536;28;20035;-58
2023/01/11 05:40:07;;;;;;;17.33;2.63;;;;;;;;;;2108648;28;20302;-55
2023/01/11 05:41:08;;;;;;;18.58;1.98;;;;;;;;;;2106358;28;20028;-58
2023/01/11 05:42:08;;;;;;;14.88;1.85;;;;;;;;;;2091858;28;20025;-59
2023/01/11 05:43:08;;;;;;;16.25;3.30;;;;;;;;;;2091816;28;20028;-56
2023/01/11 05:45:31;;;;;;;12.98;1.65;;;;;;;;;;2101995;28;20033;-56
2023/01/11 05:46:32;;;;;;;14.50;2.03;;;;;;;;;;2108521;28;20015;-57
2023/01/11 05:47:32;;;;;;;17.92;2.22;;;;;;;;;;2107290;28;20058;-59
2023/01/11 05:48:32;;;;;;;19.97;2.20;;;;;;;;;;2106642;28;20047;-58
2023/01/11 05:49:32;;;;;;;15.40;2.10;;;;;;;;;;2108368;28;20248;-58
2023/01/11 05:50:33;;;;;;;13.67;2.03;;;;;;;;;;2108472;28;20245;-58
2023/01/11 05:51:33;;;;;;;21.17;1.97;;;;;;;;;;2106393;28;20305;-59
2023/01/11 05:52:33;;;;;;;19.20;2.33;;;;;;;;;;2106888;28;20337;-56
2023/01/11 05:53:33;;;;;;;14.53;1.80;;;;;;;;;;2107673;28;20036;-55
2023/01/11 05:54:34;;;;;;;27.05;2.38;;;;;;;;;;2106712;28;20241;-58
2023/01/11 05:55:34;;;;;;;15.30;2.40;;;;;;;;;;2104291;28;20020;-59
2023/01/11 05:56:34;;;;;;;15.32;1.95;;;;;;;;;;2108176;28;20024;-57
2023/01/11 05:57:34;;;;;;;21.35;2.42;;;;;;;;;;2107556;28;20019;-58
2023/01/11 05:58:34;;;;;;;13.73;1.97;;;;;;;;;;2106549;28;20459;-58
2023/01/11 05:59:34;;;;;;;21.43;2.67;;;;;;;;;;2108366;28;20260;-57
2023/01/11 06:00:35;;;;;;;15.30;2.65;;;;;;;;;;2108243;28;20334;-57
2023/01/11 06:01:35;;;;;;;20.90;2.47;;;;;;;;;;2108498;28;20054;-59
2023/01/11 06:02:35;;;;;;;21.90;2.42;;;;;;;;;;2101096;28;20280;-60
2023/01/11 06:03:35;;;;;;;16.08;2.70;;;;;;;;;;2107189;28;20016;-59
2023/01/11 06:04:35;;;;;;;23.50;2.40;;;;;;;;;;2108282;28;20414;-58
2023/01/11 06:05:37;;;;;;;17.23;2.00;;;;;;;;;;2106681;28;20245;-60
2023/01/11 06:06:37;;;;;;;23.48;2.65;;;;;;;;;;2091454;28;20594;-59
2023/01/11 06:07:37;;;;;;;18.53;2.33;;;;;;;;;;2095005;28;20012;-58
2023/01/11 06:08:37;;;;;;;17.63;2.42;;;;;;;;;;2099674;28;20727;-58
2023/01/11 06:09:38;;;;;;;22.77;2.22;;;;;;;;;;2101922;28;20125;-57
2023/01/11 06:10:38;;;;;;;20.67;2.00;;;;;;;;;;2108302;28;20429;-60
2023/01/11 06:11:38;;;;;;;19.70;2.03;;;;;;;;;;2108311;28;20264;-60
2023/01/11 06:12:38;;;;;;;14.67;1.90;;;;;;;;;;2107276;28;20012;-59
2023/01/11 06:13:38;;;;;;;19.40;1.97;;;;;;;;;;2106265;28;20343;-57
2023/01/11 06:14:38;;;;;;;20.90;2.43;;;;;;;;;;2108169;28;20573;-59
2023/01/11 06:15:39;;;;;;;18.35;2.13;;;;;;;;;;2108365;28;20236;-58
2023/01/11 06:16:39;;;;;;;19.92;1.88;;;;;;;;;;2106240;28;20016;-59
2023/01/11 06:17:39;;;;;;;19.52;2.30;;;;;;;;;;2106340;28;20020;-60
2023/01/11 06:18:41;;;;;;;25.83;2.70;;;;;;;;;;2108045;28;20436;-59
2023/01/11 06:19:41;;;;;;;16.92;1.83;;;;;;;;;;2108236;28;20024;-59
2023/01/11 06:20:41;;;;;;;20.10;2.37;;;;;;;;;;2106168;28;20348;-59
2023/01/11 06:21:41;;;;;;;20.00;2.58;;;;;;;;;;2107942;28;20293;-59
2023/01/11 06:22:41;;;;;;;15.30;2.10;;;;;;;;;;2103165;28;20032;-60
2023/01/11 06:23:43;;;;;;;22.80;2.73;;;;;;;;;;2108107;28;20051;-59
2023/01/11 06:24:44;;;;;;;23.63;2.30;;;;;;;;;;2106067;28;20331;-57